Mount Carmel, Iowa
Current Conditions -  °F | °C
As of 1:15 PM on Friday 24 Oct 2014 (Local Time) from KCIN Reporting Station
Clear Clear  
Wind Chill: 70°   Ceiling: Unl
Heat Index: 70°   Visibility: 9mi
Dew Point: 59°   Wind: 12mph
Humidity: 68%   Direction: 240°WSW
Pressure: 29.9"   Gusts: NA
Location:  42.08°N, 94.8598°W
Report Text: KCIN 241815Z AUTO 24010KT 9SM CLR 21/15 A2990 RMK AO2
Loading
Personal Weather Stations






























Interactive Weather Map
Tropical Storm Tracking
New forecast layout! Learn more

10-Day Weather Forecast

Advertisements
Track Severe Weather on mobile